createdAt,value
2018-08-04T00:00:16.134Z,59.14
2018-08-04T00:01:16.160Z,59.43
2018-08-04T00:02:16.185Z,59.23
2018-08-04T00:03:16.214Z,58.95
2018-08-04T00:04:16.236Z,59.14
2018-08-04T00:05:16.266Z,58.95
2018-08-04T00:06:16.292Z,59.53
2018-08-04T00:07:16.318Z,58.95
2018-08-04T00:08:16.347Z,58.95
2018-08-04T00:09:16.372Z,58.65
2018-08-04T00:10:16.398Z,58.85
2018-08-04T00:11:16.425Z,59.14
2018-08-04T00:12:16.450Z,59.14
2018-08-04T00:13:16.476Z,59.14
2018-08-04T00:14:16.505Z,59.05
2018-08-04T00:15:16.532Z,59.43
2018-08-04T00:16:16.559Z,59.33
2018-08-04T00:17:16.587Z,58.65
2018-08-04T00:18:16.609Z,58.75
2018-08-04T00:19:16.636Z,58.82
2018-08-04T00:20:16.664Z,58.72
2018-08-04T00:21:16.689Z,59.11
2018-08-04T00:22:16.714Z,59.59
2018-08-04T00:23:16.745Z,59.40
2018-08-04T00:24:16.768Z,59.40
2018-08-04T00:25:16.796Z,59.59
2018-08-04T00:26:16.820Z,59.50
2018-08-04T00:27:16.849Z,59.31
2018-08-04T00:28:16.875Z,60.08
2018-08-04T00:29:16.903Z,60.27
2018-08-04T00:30:16.928Z,59.89
2018-08-04T00:31:16.954Z,59.50
2018-08-04T00:32:16.985Z,59.98
2018-08-04T00:33:17.003Z,59.76
2018-08-04T00:34:17.034Z,60.08
2018-08-04T00:35:17.058Z,60.05
2018-08-04T00:36:17.086Z,60.24
2018-08-04T00:37:17.111Z,60.34
2018-08-04T00:38:17.138Z,60.14
2018-08-04T00:39:17.164Z,59.95
2018-08-04T00:40:17.192Z,60.14
2018-08-04T00:41:17.217Z,60.14
2018-08-04T00:42:17.241Z,59.95
2018-08-04T00:43:17.269Z,60.14
2018-08-04T00:44:17.294Z,60.24
2018-08-04T00:45:17.322Z,60.24
2018-08-04T00:46:17.347Z,60.72
2018-08-04T00:47:17.375Z,60.72
2018-08-04T00:48:17.401Z,60.72
2018-08-04T00:49:17.424Z,61.02
2018-08-04T00:50:17.451Z,61.21
2018-08-04T00:51:17.477Z,61.02
2018-08-04T00:52:17.509Z,61.02
2018-08-04T00:53:17.530Z,60.89
2018-08-04T00:54:17.559Z,61.60
2018-08-04T00:55:17.580Z,61.57
2018-08-04T00:56:17.606Z,61.60
2018-08-04T00:57:17.631Z,61.57
2018-08-04T00:58:17.659Z,61.95
2018-08-04T00:59:17.687Z,61.86
2018-08-04T01:00:17.712Z,62.05
2018-08-04T01:01:17.736Z,62.05
2018-08-04T01:02:17.771Z,62.24
2018-08-04T01:03:17.795Z,62.34
2018-08-04T01:04:17.827Z,62.15
2018-08-04T01:05:17.840Z,62.24
2018-08-04T01:06:17.867Z,62.82
2018-08-04T01:07:17.894Z,62.82
2018-08-04T01:08:17.920Z,62.53
2018-08-04T01:09:17.942Z,62.70
2018-08-04T01:10:17.972Z,63.02
2018-08-04T01:11:17.999Z,62.79
2018-08-04T01:12:18.021Z,63.40
2018-08-04T01:13:18.049Z,62.92
2018-08-04T01:14:18.075Z,63.11
2018-08-04T01:15:18.101Z,63.31
2018-08-04T01:16:18.125Z,63.40
2018-08-04T01:17:18.150Z,63.98
2018-08-04T01:18:18.179Z,63.60
2018-08-04T01:19:18.206Z,63.76
2018-08-04T01:20:18.231Z,63.85
2018-08-04T01:21:18.253Z,63.50
2018-08-04T01:22:18.280Z,63.66
2018-08-04T01:23:18.305Z,63.76
2018-08-04T01:24:18.334Z,63.95
2018-08-04T01:25:18.359Z,64.14
2018-08-04T01:26:18.387Z,63.95
2018-08-04T01:27:18.408Z,64.14
2018-08-04T01:28:18.435Z,64.24
2018-08-04T01:29:18.460Z,64.24
2018-08-04T01:30:18.487Z,64.24
2018-08-04T01:31:18.513Z,64.63
2018-08-04T01:32:18.537Z,64.92
2018-08-04T01:33:18.563Z,64.72
2018-08-04T01:34:18.588Z,65.01
2018-08-04T01:35:18.614Z,65.30
2018-08-04T01:36:18.640Z,65.30
2018-08-04T01:37:18.668Z,65.59
2018-08-04T01:38:18.690Z,65.30
2018-08-04T01:39:18.720Z,65.78
2018-08-04T01:40:18.743Z,65.88
2018-08-04T01:41:18.770Z,65.88
2018-08-04T01:42:18.794Z,65.78
2018-08-04T01:43:18.819Z,66.08
2018-08-04T01:44:18.845Z,66.43
2018-08-04T01:45:18.870Z,67.01
2018-08-04T01:46:18.898Z,66.91
2018-08-04T01:47:18.923Z,66.63
2018-08-04T01:48:18.950Z,66.82
2018-08-04T01:49:18.974Z,66.91
2018-08-04T01:50:19.001Z,67.20
2018-08-04T01:51:19.027Z,66.91
2018-08-04T01:52:19.052Z,67.69
2018-08-04T01:53:19.079Z,67.30
2018-08-04T01:54:19.102Z,67.49
2018-08-04T01:55:19.131Z,67.69
2018-08-04T01:56:19.154Z,67.69
2018-08-04T01:57:19.178Z,68.07
2018-08-04T01:58:19.212Z,68.07
2018-08-04T01:59:19.231Z,68.46
2018-08-04T02:00:19.255Z,68.46
2018-08-04T02:01:19.282Z,68.55
2018-08-04T02:02:19.306Z,68.55
2018-08-04T02:03:19.336Z,68.17
2018-08-04T02:04:19.360Z,68.52
2018-08-04T02:05:19.382Z,68.33
2018-08-04T02:06:19.411Z,68.43
2018-08-04T02:07:19.686Z,68.55
2018-08-04T02:08:19.459Z,69.13
2018-08-04T02:09:19.485Z,69.00
2018-08-04T02:10:19.511Z,69.10
2018-08-04T02:11:19.535Z,68.65
2018-08-04T02:12:19.560Z,68.62
2018-08-04T02:13:19.588Z,68.65
2018-08-04T02:14:19.611Z,69.23
2018-08-04T02:15:19.638Z,69.58
2018-08-04T02:16:19.664Z,69.68
2018-08-04T02:17:19.690Z,69.87
2018-08-04T02:18:19.712Z,69.68
2018-08-04T02:19:19.740Z,70.06
2018-08-04T02:20:19.766Z,70.26
2018-08-04T02:21:19.787Z,70.26
2018-08-04T02:22:19.816Z,70.06
2018-08-04T02:23:19.844Z,70.64
2018-08-04T02:24:19.865Z,70.54
2018-08-04T02:25:19.891Z,70.74
2018-08-04T02:26:19.916Z,70.45
2018-08-04T02:27:19.943Z,70.64
2018-08-04T02:28:19.970Z,70.94
2018-08-04T02:29:19.989Z,71.61
2018-08-04T02:30:20.026Z,71.51
2018-08-04T02:31:20.043Z,71.22
2018-08-04T02:32:20.070Z,71.80
2018-08-04T02:33:20.094Z,72.00
2018-08-04T02:34:20.116Z,72.19
2018-08-04T02:35:20.146Z,72.19
2018-08-04T02:36:20.174Z,71.70
2018-08-04T02:37:20.195Z,71.90
2018-08-04T02:38:20.220Z,71.90
2018-08-04T02:39:20.242Z,71.70
2018-08-04T02:40:20.270Z,71.90
2018-08-04T02:41:20.296Z,71.90
2018-08-04T02:42:20.318Z,71.80
2018-08-04T02:43:20.343Z,72.09
2018-08-04T02:44:20.370Z,72.28
2018-08-04T02:45:20.393Z,72.15
2018-08-04T02:46:20.421Z,72.73
2018-08-04T02:47:20.445Z,72.73
2018-08-04T02:48:20.473Z,73.02
2018-08-04T02:49:20.504Z,73.11
2018-08-04T02:50:20.519Z,73.21
2018-08-04T02:51:20.546Z,72.63
2018-08-04T02:52:20.572Z,72.86
2018-08-04T02:53:20.600Z,73.11
2018-08-04T02:54:20.619Z,72.77
2018-08-04T02:55:20.648Z,72.73
2018-08-04T02:56:20.673Z,72.83
2018-08-04T02:57:20.700Z,73.21
2018-08-04T02:58:20.720Z,73.21
2018-08-04T02:59:20.755Z,73.11
2018-08-04T03:00:20.774Z,73.11
2018-08-04T03:01:20.798Z,73.60
2018-08-04T03:02:20.824Z,73.11
2018-08-04T03:03:20.848Z,73.11
2018-08-04T03:04:20.870Z,73.50
2018-08-04T03:05:20.896Z,73.31
2018-08-04T03:06:20.922Z,73.60
2018-08-04T03:07:20.948Z,73.50
2018-08-04T03:08:21.009Z,73.41
2018-08-04T03:09:20.995Z,73.31
2018-08-04T03:10:21.020Z,73.50
2018-08-04T03:11:21.045Z,73.60
2018-08-04T03:12:21.072Z,73.21
2018-08-04T03:13:21.098Z,73.11
2018-08-04T03:14:21.121Z,73.69
2018-08-04T03:15:21.146Z,73.79
2018-08-04T03:16:21.171Z,73.89
2018-08-04T03:17:21.196Z,73.99
2018-08-04T03:18:21.223Z,74.27
2018-08-04T03:19:21.298Z,74.57
2018-08-04T03:20:21.275Z,74.57
2018-08-04T03:21:21.347Z,74.57
2018-08-04T03:22:21.321Z,74.47
2018-08-04T03:23:21.355Z,74.52
2018-08-04T03:24:21.373Z,75.62
2018-08-04T03:25:21.396Z,75.34
2018-08-04T03:26:21.423Z,75.24
2018-08-04T03:27:21.447Z,74.95
2018-08-04T03:28:21.475Z,75.43
2018-08-04T03:29:21.500Z,75.24
2018-08-04T03:30:21.525Z,75.14
2018-08-04T03:31:21.548Z,75.14
2018-08-04T03:32:21.577Z,75.05
2018-08-04T03:33:21.596Z,75.34
2018-08-04T03:34:21.623Z,75.20
2018-08-04T03:35:21.647Z,75.62
2018-08-04T03:36:21.675Z,75.78
2018-08-04T03:37:21.695Z,75.92
2018-08-04T03:38:21.720Z,76.40
2018-08-04T03:39:21.747Z,76.30
2018-08-04T03:40:21.774Z,76.40
2018-08-04T03:41:21.798Z,76.07
2018-08-04T03:42:21.825Z,75.92
2018-08-04T03:43:21.849Z,76.50
2018-08-04T03:44:21.875Z,76.50
2018-08-04T03:45:21.895Z,76.20
2018-08-04T03:46:21.923Z,76.40
2018-08-04T03:47:21.947Z,76.40
2018-08-04T03:48:21.972Z,76.26
2018-08-04T03:49:21.998Z,76.98
2018-08-04T03:50:22.023Z,77.07
2018-08-04T03:51:22.051Z,77.36
2018-08-04T03:52:22.071Z,77.07
2018-08-04T03:53:22.097Z,77.17
2018-08-04T03:54:22.123Z,76.78
2018-08-04T03:55:22.145Z,77.51
2018-08-04T03:56:22.171Z,77.55
2018-08-04T03:57:22.195Z,77.36
2018-08-04T03:58:22.225Z,77.36
2018-08-04T03:59:22.245Z,77.17
2018-08-04T04:00:22.271Z,76.59
2018-08-04T04:01:22.297Z,77.17
2018-08-04T04:02:22.324Z,77.07
2018-08-04T04:03:22.348Z,77.07
2018-08-04T04:04:22.373Z,77.36
2018-08-04T04:05:22.394Z,77.46
2018-08-04T04:06:22.419Z,78.03
2018-08-04T04:07:22.448Z,77.84
2018-08-04T04:08:22.473Z,77.84
2018-08-04T04:09:22.496Z,78.09
2018-08-04T04:10:22.522Z,78.13
2018-08-04T04:11:22.551Z,78.13
2018-08-04T04:12:22.570Z,78.13
2018-08-04T04:13:22.595Z,78.23
2018-08-04T04:14:22.623Z,77.94
2018-08-04T04:15:22.648Z,77.46
2018-08-04T04:16:22.671Z,77.46
2018-08-04T04:17:22.697Z,78.23
2018-08-04T04:18:22.722Z,77.84
2018-08-04T04:19:22.748Z,77.75
2018-08-04T04:20:22.773Z,78.13
2018-08-04T04:21:22.794Z,78.03
2018-08-04T04:22:22.824Z,78.03
2018-08-04T04:23:22.844Z,77.75
2018-08-04T04:24:22.869Z,77.94
2018-08-04T04:25:22.893Z,77.84
2018-08-04T04:26:22.921Z,77.84
2018-08-04T04:27:22.949Z,77.84
2018-08-04T04:28:22.972Z,78.03
2018-08-04T04:29:22.996Z,78.13
2018-08-04T04:30:23.023Z,78.03
2018-08-04T04:31:23.045Z,78.33
2018-08-04T04:32:23.523Z,78.13
2018-08-04T04:33:23.094Z,78.77
2018-08-04T04:34:23.121Z,78.71
2018-08-04T04:35:23.145Z,78.52
2018-08-04T04:36:23.170Z,79.39
2018-08-04T04:37:23.197Z,79.00
2018-08-04T04:38:23.218Z,79.58
2018-08-04T04:39:23.247Z,79.58
2018-08-04T04:40:23.269Z,79.54
2018-08-04T04:41:23.293Z,79.68
2018-08-04T04:42:23.319Z,79.83
2018-08-04T04:43:23.347Z,79.77
2018-08-04T04:44:23.372Z,80.06
2018-08-04T04:45:23.399Z,80.06
2018-08-04T04:46:23.420Z,80.06
2018-08-04T04:47:23.446Z,80.99
2018-08-04T04:48:23.512Z,80.79
2018-08-04T04:49:23.494Z,80.89
2018-08-04T04:50:23.519Z,81.37
2018-08-04T04:51:23.546Z,81.66
2018-08-04T04:52:23.568Z,81.27
2018-08-04T04:53:23.592Z,82.05
2018-08-04T04:54:23.619Z,82.43
2018-08-04T04:55:23.699Z,82.14
2018-08-04T04:56:23.671Z,82.62
2018-08-04T04:57:23.695Z,82.82
2018-08-04T04:58:23.718Z,82.34
2018-08-04T04:59:23.746Z,82.43
2018-08-04T05:00:23.769Z,82.48
2018-08-04T05:01:23.792Z,82.09
2018-08-04T05:02:23.820Z,81.90
2018-08-04T05:03:23.846Z,81.99
2018-08-04T05:04:23.871Z,82.48
2018-08-04T05:05:23.895Z,83.01
2018-08-04T05:06:23.917Z,83.20
2018-08-04T05:07:23.945Z,83.59
2018-08-04T05:08:23.968Z,84.36
2018-08-04T05:09:23.993Z,84.36
2018-08-04T05:10:24.020Z,84.55
2018-08-04T05:11:24.042Z,84.07
2018-08-04T05:12:24.067Z,83.88
2018-08-04T05:13:24.168Z,84.46
2018-08-04T05:14:24.119Z,84.46
2018-08-04T05:15:24.146Z,84.46
2018-08-04T05:16:24.166Z,85.33
2018-08-04T05:17:24.191Z,85.33
2018-08-04T05:18:24.218Z,84.84
2018-08-04T05:19:24.244Z,85.33
2018-08-04T05:20:24.267Z,84.79
2018-08-04T05:21:24.294Z,84.41
2018-08-04T05:22:24.320Z,84.21
2018-08-04T05:23:24.342Z,84.01
2018-08-04T05:24:24.368Z,84.01
2018-08-04T05:25:24.396Z,84.11
2018-08-04T05:26:24.418Z,83.92
2018-08-04T05:27:24.442Z,83.73
2018-08-04T05:28:24.469Z,84.59
2018-08-04T05:29:24.495Z,84.31
2018-08-04T05:30:24.520Z,84.89
2018-08-04T05:31:24.542Z,84.50
2018-08-04T05:32:24.619Z,84.89
2018-08-04T05:33:24.596Z,84.69
2018-08-04T05:34:24.617Z,84.50
2018-08-04T05:35:24.647Z,84.21
2018-08-04T05:36:24.670Z,84.50
2018-08-04T05:37:24.753Z,84.59
2018-08-04T05:38:24.721Z,85.17
2018-08-04T05:39:24.755Z,85.66
2018-08-04T05:40:24.770Z,84.89
2018-08-04T05:41:24.797Z,85.37
2018-08-04T05:42:24.821Z,85.17
2018-08-04T05:43:24.923Z,85.46
2018-08-04T05:44:24.874Z,85.94
2018-08-04T05:45:24.897Z,85.75
2018-08-04T05:46:24.920Z,85.75
2018-08-04T05:47:24.953Z,86.33
2018-08-04T05:48:24.973Z,86.04
2018-08-04T05:49:24.995Z,86.04
2018-08-04T05:50:25.022Z,87.10
2018-08-04T05:51:25.046Z,87.16
2018-08-04T05:52:25.074Z,87.78
2018-08-04T05:53:25.095Z,88.22
2018-08-04T05:54:25.120Z,88.17
2018-08-04T05:55:25.146Z,88.26
2018-08-04T05:56:25.173Z,88.45
2018-08-04T05:57:25.197Z,87.40
2018-08-04T05:58:25.222Z,87.30
2018-08-04T05:59:25.249Z,87.10
2018-08-04T06:00:25.271Z,87.10
2018-08-04T06:01:25.298Z,87.10
2018-08-04T06:02:25.322Z,87.10
2018-08-04T06:03:25.435Z,87.15
2018-08-04T06:04:25.373Z,86.66
2018-08-04T06:05:25.398Z,87.24
2018-08-04T06:06:25.426Z,87.24
2018-08-04T06:07:25.451Z,86.86
2018-08-04T06:08:25.473Z,87.24
2018-08-04T06:09:25.510Z,86.76
2018-08-04T06:10:25.524Z,86.96
2018-08-04T06:11:25.552Z,85.70
2018-08-04T06:12:25.574Z,86.08
2018-08-04T06:13:25.602Z,86.08
2018-08-04T06:14:25.625Z,86.08
2018-08-04T06:15:25.650Z,86.57
2018-08-04T06:16:25.676Z,87.15
2018-08-04T06:17:25.702Z,87.34
2018-08-04T06:18:25.728Z,87.44
2018-08-04T06:19:25.755Z,87.15
2018-08-04T06:20:25.777Z,86.96
2018-08-04T06:21:25.804Z,86.57
2018-08-04T06:22:25.831Z,86.28
2018-08-04T06:23:25.856Z,85.84
2018-08-04T06:24:25.881Z,85.16
2018-08-04T06:25:25.907Z,84.72
2018-08-04T06:26:25.929Z,83.85
2018-08-04T06:27:25.958Z,83.47
2018-08-04T06:28:25.984Z,82.69
2018-08-04T06:29:26.009Z,82.60
2018-08-04T06:30:26.059Z,81.63
2018-08-04T06:31:26.060Z,81.77
2018-08-04T06:32:26.090Z,81.57
2018-08-04T06:33:26.109Z,81.87
2018-08-04T06:34:26.142Z,81.96
2018-08-04T06:35:26.164Z,82.06
2018-08-04T06:36:26.192Z,81.38
2018-08-04T06:37:26.213Z,81.57
2018-08-04T06:38:26.244Z,82.35
2018-08-04T06:39:26.269Z,82.02
2018-08-04T06:40:26.292Z,82.25
2018-08-04T06:41:26.320Z,82.25
2018-08-04T06:42:26.347Z,82.89
2018-08-04T06:43:26.375Z,82.73
2018-08-04T06:44:26.397Z,82.54
2018-08-04T06:45:26.421Z,82.15
2018-08-04T06:46:26.448Z,82.35
2018-08-04T06:47:26.476Z,81.67
2018-08-04T06:48:26.500Z,82.15
2018-08-04T06:49:26.528Z,82.45
2018-08-04T06:50:26.656Z,82.25
2018-08-04T06:51:26.578Z,82.06
2018-08-04T06:52:26.605Z,82.54
2018-08-04T06:53:26.631Z,82.25
2018-08-04T06:54:26.659Z,82.69
2018-08-04T06:55:26.687Z,83.75
2018-08-04T06:56:27.062Z,83.80
2018-08-04T06:57:26.736Z,84.19
2018-08-04T06:58:26.771Z,83.51
2018-08-04T06:59:26.789Z,82.73
2018-08-04T07:00:26.816Z,82.58
2018-08-04T07:01:26.843Z,82.58
2018-08-04T07:02:26.871Z,81.81
2018-08-04T07:03:26.897Z,81.71
2018-08-04T07:04:26.920Z,81.71
2018-08-04T07:05:26.947Z,81.62
2018-08-04T07:06:26.975Z,81.52
2018-08-04T07:07:27.003Z,82.20
2018-08-04T07:08:27.028Z,82.39
2018-08-04T07:09:27.051Z,81.71
2018-08-04T07:10:27.081Z,82.10
2018-08-04T07:11:27.105Z,81.81
2018-08-04T07:12:27.133Z,81.81
2018-08-04T07:13:27.158Z,81.52
2018-08-04T07:14:27.184Z,81.81
2018-08-04T07:15:27.214Z,82.10
2018-08-04T07:16:27.237Z,81.62
2018-08-04T07:17:27.265Z,81.71
2018-08-04T07:18:27.292Z,82.00
2018-08-04T07:19:27.317Z,81.71
2018-08-04T07:20:27.344Z,80.88
2018-08-04T07:21:27.370Z,80.69
2018-08-04T07:22:27.396Z,80.98
2018-08-04T07:23:27.423Z,79.47
2018-08-04T07:24:27.448Z,78.36
2018-08-04T07:25:27.474Z,78.02
2018-08-04T07:26:27.504Z,78.59
2018-08-04T07:27:27.527Z,78.41
2018-08-04T07:28:27.559Z,77.82
2018-08-04T07:29:27.580Z,77.53
2018-08-04T07:30:27.611Z,77.37
2018-08-04T07:31:27.636Z,76.89
2018-08-04T07:32:27.661Z,76.41
2018-08-04T07:33:27.690Z,76.18
2018-08-04T07:34:27.714Z,77.24
2018-08-04T07:35:27.743Z,76.66
2018-08-04T07:36:27.769Z,77.05
2018-08-04T07:37:27.797Z,78.02
2018-08-04T07:38:27.822Z,78.56
2018-08-04T07:39:27.852Z,78.11
2018-08-04T07:40:27.899Z,78.41
2018-08-04T07:41:27.906Z,77.82
2018-08-04T07:42:27.934Z,77.92
2018-08-04T07:43:27.957Z,78.41
2018-08-04T07:44:27.986Z,78.50
2018-08-04T07:45:28.012Z,77.73
2018-08-04T07:46:28.039Z,77.73
2018-08-04T07:47:28.098Z,77.24
2018-08-04T07:48:28.097Z,78.31
2018-08-04T07:49:28.122Z,77.63
2018-08-04T07:50:28.148Z,78.50
2018-08-04T07:51:28.181Z,78.31
2018-08-04T07:52:28.204Z,77.92
2018-08-04T07:53:28.229Z,78.50
2018-08-04T07:54:28.256Z,78.21
2018-08-04T07:55:28.284Z,77.47
2018-08-04T07:56:28.312Z,77.53
2018-08-04T07:57:28.341Z,77.96
2018-08-04T07:58:28.368Z,77.57
2018-08-04T07:59:28.452Z,76.89
2018-08-04T08:00:28.422Z,76.12
2018-08-04T08:01:28.462Z,75.54
2018-08-04T08:02:28.477Z,75.19
2018-08-04T08:03:28.506Z,74.32
2018-08-04T08:04:28.532Z,74.51
2018-08-04T08:05:28.554Z,73.83
2018-08-04T08:06:28.583Z,74.26
2018-08-04T08:07:28.609Z,73.86
2018-08-04T08:08:28.636Z,73.09
2018-08-04T08:09:28.665Z,72.31
2018-08-04T08:10:28.760Z,71.54
2018-08-04T08:11:28.716Z,71.28
2018-08-04T08:12:28.744Z,70.90
2018-08-04T08:13:28.772Z,70.47
2018-08-04T08:14:28.807Z,71.54
2018-08-04T08:15:28.830Z,71.44
2018-08-04T08:16:28.856Z,71.38
2018-08-04T08:17:28.883Z,70.51
2018-08-04T08:18:28.911Z,69.44
2018-08-04T08:19:28.991Z,69.09
2018-08-04T08:20:28.967Z,69.15
2018-08-04T08:21:28.991Z,69.64
2018-08-04T08:22:29.021Z,69.15
2018-08-04T08:23:29.045Z,69.15
2018-08-04T08:24:29.076Z,68.66
2018-08-04T08:25:29.102Z,68.31
2018-08-04T08:26:29.134Z,67.54
2018-08-04T08:27:29.159Z,67.14
2018-08-04T08:28:29.183Z,67.92
2018-08-04T08:29:29.210Z,67.05
2018-08-04T08:30:29.240Z,66.89
2018-08-04T08:31:29.321Z,65.82
2018-08-04T08:32:29.311Z,64.98
2018-08-04T08:33:29.324Z,64.40
2018-08-04T08:34:29.348Z,63.71
2018-08-04T08:35:29.380Z,63.32
2018-08-04T08:36:29.408Z,62.84
2018-08-04T08:37:29.434Z,62.16
2018-08-04T08:38:29.460Z,62.45
2018-08-04T08:39:29.488Z,62.91
2018-08-04T08:40:29.633Z,62.81
2018-08-04T08:41:29.543Z,62.45
2018-08-04T08:42:29.573Z,62.26
2018-08-04T08:43:29.600Z,62.45
2018-08-04T08:44:29.633Z,62.26
2018-08-04T08:45:29.659Z,62.45
2018-08-04T08:46:29.686Z,62.26
2018-08-04T08:47:29.715Z,62.26
2018-08-04T08:48:29.742Z,62.16
2018-08-04T08:49:29.766Z,61.97
2018-08-04T08:50:29.798Z,60.41
2018-08-04T08:51:29.822Z,60.80
2018-08-04T08:52:29.852Z,60.44
2018-08-04T08:53:30.098Z,59.95
2018-08-04T08:54:29.906Z,60.41
2018-08-04T08:55:29.937Z,59.67
2018-08-04T08:56:29.966Z,59.34
2018-08-04T08:57:29.994Z,59.05
2018-08-04T08:58:30.022Z,59.05
2018-08-04T08:59:30.046Z,59.67
2018-08-04T09:00:30.079Z,59.67
2018-08-04T09:01:30.210Z,58.69
2018-08-04T09:02:30.134Z,59.01
2018-08-04T09:03:30.160Z,58.72
2018-08-04T09:04:30.192Z,58.62
2018-08-04T09:05:30.215Z,58.62
2018-08-04T09:06:30.246Z,58.43
2018-08-04T09:07:30.277Z,57.95
2018-08-04T09:08:30.318Z,58.33
2018-08-04T09:09:30.329Z,58.43
2018-08-04T09:10:30.357Z,58.89
2018-08-04T09:11:30.389Z,58.50
2018-08-04T09:12:30.414Z,57.26
2018-08-04T09:13:30.443Z,56.29
2018-08-04T09:14:30.471Z,56.20
2018-08-04T09:15:30.503Z,55.61
2018-08-04T09:16:30.548Z,55.41
2018-08-04T09:17:30.555Z,54.74
2018-08-04T09:18:30.584Z,54.83
2018-08-04T09:19:31.017Z,54.25
2018-08-04T09:20:30.641Z,53.86
2018-08-04T09:21:30.668Z,53.67
2018-08-04T09:22:30.700Z,53.57
2018-08-04T09:23:30.726Z,52.82
2018-08-04T09:24:30.753Z,52.53
2018-08-04T09:25:30.784Z,52.21
2018-08-04T09:26:30.819Z,52.59
2018-08-04T09:27:30.840Z,52.04
2018-08-04T09:28:30.867Z,52.21
2018-08-04T09:29:30.900Z,53.67
2018-08-04T09:30:30.926Z,54.64
2018-08-04T09:31:30.954Z,54.18
2018-08-04T09:32:30.983Z,54.18
2018-08-04T09:33:31.016Z,53.99
2018-08-04T09:34:31.046Z,53.99
2018-08-04T09:35:31.071Z,54.76
2018-08-04T09:36:31.098Z,54.76
2018-08-04T09:37:31.123Z,53.79
2018-08-04T09:38:31.151Z,53.11
2018-08-04T09:39:31.182Z,52.55
2018-08-04T09:40:31.207Z,52.16
2018-08-04T09:41:31.237Z,52.65
2018-08-04T09:42:31.264Z,52.65
2018-08-04T09:43:31.295Z,53.50
2018-08-04T09:44:31.322Z,52.62
2018-08-04T09:45:31.351Z,52.72
2018-08-04T09:46:31.381Z,52.75
2018-08-04T09:47:31.407Z,52.16
2018-08-04T09:48:31.438Z,51.61
2018-08-04T09:49:31.464Z,52.19
2018-08-04T09:50:31.493Z,51.97
2018-08-04T09:51:31.525Z,52.06
2018-08-04T09:52:31.610Z,51.97
2018-08-04T09:53:31.584Z,51.29
2018-08-04T09:54:31.610Z,51.48
2018-08-04T09:55:31.637Z,51.58
2018-08-04T09:56:31.666Z,52.16
2018-08-04T09:57:31.695Z,51.84
2018-08-04T09:58:31.720Z,52.14
2018-08-04T09:59:31.757Z,51.94
2018-08-04T10:00:31.781Z,50.90
2018-08-04T10:01:31.813Z,51.09
2018-08-04T10:02:31.836Z,51.29
2018-08-04T10:03:31.865Z,51.77
2018-08-04T10:04:31.896Z,51.87
2018-08-04T10:05:31.924Z,51.67
2018-08-04T10:06:31.950Z,53.14
2018-08-04T10:07:31.978Z,53.23
2018-08-04T10:08:32.011Z,53.72
2018-08-04T10:09:32.039Z,53.55
2018-08-04T10:10:32.066Z,53.55
2018-08-04T10:11:32.098Z,52.87
2018-08-04T10:12:32.124Z,52.22
2018-08-04T10:13:32.153Z,51.24
2018-08-04T10:14:32.182Z,51.24
2018-08-04T10:15:32.214Z,50.95
2018-08-04T10:16:32.238Z,51.24
2018-08-04T10:17:32.268Z,50.46
2018-08-04T10:18:32.298Z,50.46
2018-08-04T10:19:32.327Z,50.46
2018-08-04T10:20:32.355Z,50.82
2018-08-04T10:21:32.384Z,51.41
2018-08-04T10:22:32.414Z,52.09
2018-08-04T10:23:32.442Z,51.77
2018-08-04T10:24:32.468Z,52.19
2018-08-04T10:25:32.501Z,51.12
2018-08-04T10:26:32.525Z,51.02
2018-08-04T10:27:32.558Z,50.82
2018-08-04T10:28:32.584Z,50.95
2018-08-04T10:29:32.613Z,49.68
2018-08-04T10:30:32.641Z,49.00
2018-08-04T10:31:32.672Z,50.36
2018-08-04T10:32:32.745Z,50.26
2018-08-04T10:33:32.727Z,50.36
2018-08-04T10:34:32.756Z,50.26
2018-08-04T10:35:32.787Z,50.29
2018-08-04T10:36:32.815Z,49.58
2018-08-04T10:37:32.845Z,49.78
2018-08-04T10:38:32.923Z,49.58
2018-08-04T10:39:32.904Z,49.97
2018-08-04T10:40:32.934Z,49.80
2018-08-04T10:41:32.962Z,49.61
2018-08-04T10:42:32.988Z,48.93
2018-08-04T10:43:33.017Z,48.44
2018-08-04T10:44:33.047Z,49.32
2018-08-04T10:45:33.078Z,48.93
2018-08-04T10:46:33.108Z,49.71
2018-08-04T10:47:33.140Z,49.71
2018-08-04T10:48:33.164Z,49.71
2018-08-04T10:49:33.207Z,49.51
2018-08-04T10:50:33.221Z,49.51
2018-08-04T10:51:33.255Z,49.15
2018-08-04T10:52:33.282Z,49.24
2018-08-04T10:53:33.307Z,48.83
2018-08-04T10:54:33.337Z,49.24
2018-08-04T10:55:33.368Z,49.05
2018-08-04T10:56:33.404Z,48.44
2018-08-04T10:57:33.424Z,48.24
2018-08-04T10:58:33.478Z,48.24
2018-08-04T10:59:33.485Z,47.85
2018-08-04T11:00:33.515Z,47.78
2018-08-04T11:01:33.543Z,47.97
2018-08-04T11:02:33.571Z,48.66
2018-08-04T11:03:33.599Z,48.66
2018-08-04T11:04:33.834Z,48.39
2018-08-04T11:05:33.665Z,48.29
2018-08-04T11:06:33.694Z,48.19
2018-08-04T11:07:33.716Z,48.49
2018-08-04T11:08:33.747Z,48.29
2018-08-04T11:09:33.777Z,48.58
2018-08-04T11:10:33.806Z,48.12
2018-08-04T11:11:33.835Z,47.51
2018-08-04T11:12:33.882Z,47.49
2018-08-04T11:13:33.898Z,47.97
2018-08-04T11:14:33.920Z,48.36
2018-08-04T11:15:33.951Z,48.85
2018-08-04T11:16:33.981Z,49.24
2018-08-04T11:17:34.011Z,48.29
2018-08-04T11:18:34.040Z,48.58
2018-08-04T11:19:34.070Z,47.63
2018-08-04T11:20:34.099Z,47.61
2018-08-04T11:21:34.128Z,48.39
2018-08-04T11:22:34.156Z,48.07
2018-08-04T11:23:34.189Z,49.34
2018-08-04T11:24:34.215Z,49.24
2018-08-04T11:25:34.244Z,48.56
2018-08-04T11:26:34.275Z,48.39
2018-08-04T11:27:34.304Z,48.10
2018-08-04T11:28:34.335Z,47.71
2018-08-04T11:29:34.388Z,47.61
2018-08-04T11:30:34.394Z,47.14
2018-08-04T11:31:34.423Z,47.24
2018-08-04T11:32:34.450Z,47.05
2018-08-04T11:33:34.478Z,46.66
2018-08-04T11:34:34.508Z,47.63
2018-08-04T11:35:34.539Z,47.14
2018-08-04T11:36:34.569Z,47.44
2018-08-04T11:37:34.598Z,47.53
2018-08-04T11:38:34.631Z,47.39
2018-08-04T11:39:34.658Z,48.46
2018-08-04T11:40:34.689Z,48.36
2018-08-04T11:41:34.717Z,48.46
2018-08-04T11:42:34.747Z,48.95
2018-08-04T11:43:34.775Z,48.46
2018-08-04T11:44:34.803Z,48.49
2018-08-04T11:45:34.880Z,48.49
2018-08-04T11:46:34.864Z,48.39
2018-08-04T11:47:34.897Z,47.83
2018-08-04T11:48:34.923Z,47.44
2018-08-04T11:49:34.949Z,46.85
2018-08-04T11:50:34.983Z,46.58
2018-08-04T11:51:35.092Z,46.00
2018-08-04T11:52:35.041Z,45.39
2018-08-04T11:53:35.066Z,45.68
2018-08-04T11:54:35.104Z,46.07
2018-08-04T11:55:35.129Z,46.14
2018-08-04T11:56:35.156Z,46.17
2018-08-04T11:57:35.185Z,46.00
2018-08-04T11:58:35.218Z,46.09
2018-08-04T11:59:35.247Z,46.26
2018-08-04T12:00:35.276Z,46.56
2018-08-04T12:01:35.304Z,46.36
2018-08-04T12:02:35.332Z,45.78
2018-08-04T12:03:35.615Z,46.63
2018-08-04T12:04:35.393Z,46.75
2018-08-04T12:05:35.423Z,46.75
2018-08-04T12:06:35.453Z,46.66
2018-08-04T12:07:35.483Z,46.46
2018-08-04T12:08:35.513Z,45.97
2018-08-04T12:09:35.544Z,45.97
2018-08-04T12:10:35.570Z,46.07
2018-08-04T12:11:35.599Z,45.68
2018-08-04T12:12:35.631Z,46.04
2018-08-04T12:13:35.686Z,46.34
2018-08-04T12:14:35.690Z,46.66
2018-08-04T12:15:35.718Z,46.46
2018-08-04T12:16:35.746Z,46.09
2018-08-04T12:17:35.775Z,45.87
2018-08-04T12:18:35.805Z,46.19
2018-08-04T12:19:35.834Z,45.70
2018-08-04T12:20:35.867Z,45.51
2018-08-04T12:21:35.895Z,45.90
2018-08-04T12:22:35.922Z,45.61
2018-08-04T12:23:35.956Z,45.41
2018-08-04T12:24:35.985Z,45.41
2018-08-04T12:25:36.062Z,44.82
2018-08-04T12:26:36.042Z,44.74
2018-08-04T12:27:36.375Z,44.35
2018-08-04T12:28:36.103Z,44.35
2018-08-04T12:29:36.135Z,45.31
2018-08-04T12:30:36.161Z,45.41
2018-08-04T12:31:36.197Z,45.41
2018-08-04T12:32:36.222Z,44.74
2018-08-04T12:33:36.255Z,44.55
2018-08-04T12:34:36.282Z,44.26
2018-08-04T12:35:36.308Z,43.96
2018-08-04T12:36:36.339Z,45.04
2018-08-04T12:37:36.415Z,45.04
2018-08-04T12:38:36.400Z,44.65
2018-08-04T12:39:36.432Z,44.82
2018-08-04T12:40:36.461Z,44.92
2018-08-04T12:41:36.487Z,44.82
2018-08-04T12:42:36.519Z,44.82
2018-08-04T12:43:36.548Z,44.73
2018-08-04T12:44:36.576Z,44.06
2018-08-04T12:45:36.633Z,44.53
2018-08-04T12:46:36.636Z,44.04
2018-08-04T12:47:36.674Z,44.34
2018-08-04T12:48:36.699Z,45.12
2018-08-04T12:49:36.727Z,44.82
2018-08-04T12:50:36.756Z,44.43
2018-08-04T12:51:36.787Z,44.43
2018-08-04T12:52:36.814Z,44.43